Time;durP1;ratioP1;P1;durP2;ratioP2;P2;SDS_P1;SDS_P2;PMS_P1;PMS_P2;Temp;Humidity;BMP_temperature;BMP_pressure;BME280_temperature;BME280_humidity;BME280_pressure;Samples;Min_cycle;Max_cycle;Signal;HPM_P1;HPM_P2
2023/07/07 00:00:05;;;;;;;5.23;3.90;;;17.40;3.20;;;;;;5076356;28;20239;-77
2023/07/07 00:02:30;;;;;;;5.13;3.90;;;17.30;7.00;;;;;;5076286;28;20255;-78
2023/07/07 00:04:56;;;;;;;7.80;3.93;;;17.20;11.90;;;;;;5076563;28;20207;-79
2023/07/07 00:07:23;;;;;;;5.27;3.53;;;17.10;15.90;;;;;;5076610;28;20659;-78
2023/07/07 00:09:49;;;;;;;5.23;3.73;;;17.10;21.00;;;;;;5075926;28;20177;-78
2023/07/07 00:12:16;;;;;;;5.83;3.60;;;16.90;23.20;;;;;;5076146;28;20165;-77
2023/07/07 00:14:42;;;;;;;6.27;4.10;;;16.90;26.60;;;;;;5076568;28;20242;-77
2023/07/07 00:17:09;;;;;;;7.23;4.33;;;16.80;28.10;;;;;;5076165;28;20715;-77
2023/07/07 00:19:34;;;;;;;10.47;4.20;;;16.70;27.40;;;;;;5076153;28;20565;-78
2023/07/07 00:22:06;;;;;;;9.60;4.13;;;16.60;30.00;;;;;;5076347;28;20164;-77
2023/07/07 00:24:32;;;;;;;9.73;4.27;;;16.50;32.70;;;;;;5058066;28;20176;-78
2023/07/07 00:26:59;;;;;;;7.10;3.97;;;16.60;36.20;;;;;;5076155;28;20234;-77
2023/07/07 00:29:25;;;;;;;7.00;4.03;;;16.50;37.20;;;;;;5058195;28;20585;-77
2023/07/07 00:31:50;;;;;;;7.57;4.13;;;16.50;41.60;;;;;;5075784;28;20199;-77
2023/07/07 00:34:16;;;;;;;8.03;3.63;;;16.50;45.10;;;;;;5076029;28;20180;-76
2023/07/07 00:36:42;;;;;;;6.60;3.90;;;16.40;50.00;;;;;;5075882;28;20188;-77
2023/07/07 00:39:07;;;;;;;5.60;3.70;;;16.40;53.50;;;;;;5056661;28;20256;-77
2023/07/07 00:41:33;;;;;;;8.67;4.40;;;16.30;57.70;;;;;;5075288;28;20226;-77
2023/07/07 00:44:05;;;;;;;7.10;3.93;;;16.30;58.50;;;;;;5075920;28;20222;-77
2023/07/07 00:46:31;;;;;;;7.03;4.10;;;16.30;58.10;;;;;;5075787;28;20188;-77
2023/07/07 00:48:57;;;;;;;7.67;3.93;;;16.20;58.70;;;;;;5075681;28;20165;-78
2023/07/07 00:51:33;;;;;;;10.63;4.07;;;16.20;59.50;;;;;;5057462;28;20200;-77
2023/07/07 00:53:59;;;;;;;7.93;4.27;;;16.10;59.60;;;;;;5075032;28;20169;-77
2023/07/07 00:56:36;;;;;;;5.87;4.00;;;16.10;65.30;;;;;;5075841;28;20177;-77
2023/07/07 00:59:08;;;;;;;6.67;4.17;;;16.00;68.60;;;;;;5075498;28;20172;-77
2023/07/07 01:01:35;;;;;;;6.90;3.53;;;16.00;71.40;;;;;;5075269;28;20191;-77
2023/07/07 01:04:05;;;;;;;7.40;4.07;;;16.00;75.00;;;;;;5075299;28;20194;-76
2023/07/07 01:06:37;;;;;;;5.67;4.00;;;15.90;77.60;;;;;;5057415;28;20628;-77
2023/07/07 01:09:06;;;;;;;4.37;3.97;;;15.90;79.40;;;;;;5075027;28;20192;-77
2023/07/07 01:11:32;;;;;;;4.53;3.50;;;15.80;83.50;;;;;;5075020;28;20172;-77
2023/07/07 01:14:00;;;;;;;4.60;3.73;;;15.80;85.50;;;;;;5074924;28;20255;-76
2023/07/07 01:16:28;;;;;;;4.67;3.80;;;15.80;88.60;;;;;;5074793;28;20193;-78
2023/07/07 01:18:59;;;;;;;5.17;3.80;;;15.80;89.40;;;;;;5074722;28;20169;-78
2023/07/07 01:21:47;;;;;;;6.13;4.30;;;15.80;87.90;;;;;;5074857;28;20184;-78
2023/07/07 01:24:24;;;;;;;6.97;4.50;;;15.80;85.30;;;;;;5074734;28;20187;-79
2023/07/07 01:27:30;;;;;;;5.90;3.87;;;15.70;86.40;;;;;;5074824;28;20176;-78
2023/07/07 01:30:23;;;;;;;8.07;4.30;;;15.70;85.30;;;;;;5074850;28;20232;-77
2023/07/07 01:32:50;;;;;;;5.17;3.73;;;15.70;80.10;;;;;;5074787;28;20218;-78
2023/07/07 01:35:18;;;;;;;4.13;3.73;;;15.80;78.00;;;;;;5074674;28;20168;-78
2023/07/07 01:37:55;;;;;;;3.83;3.47;;;15.70;75.00;;;;;;5074105;28;20205;-78
2023/07/07 01:40:25;;;;;;;7.43;4.20;;;15.70;75.70;;;;;;5074549;28;20204;-77
2023/07/07 01:42:56;;;;;;;4.07;3.67;;;15.70;73.90;;;;;;5074671;28;20276;-78
2023/07/07 01:45:33;;;;;;;5.20;4.20;;;15.70;76.00;;;;;;5074653;28;20184;-77
2023/07/07 01:48:18;;;;;;;5.27;4.20;;;15.70;75.10;;;;;;5074367;28;20640;-77
2023/07/07 01:50:46;;;;;;;4.23;3.83;;;15.70;75.00;;;;;;5074301;28;20164;-77
2023/07/07 01:53:18;;;;;;;5.63;4.17;;;15.60;77.80;;;;;;5055868;28;20636;-77
2023/07/07 01:55:50;;;;;;;5.03;4.13;;;15.60;80.00;;;;;;5074466;28;20645;-77
2023/07/07 01:58:18;;;;;;;5.90;3.87;;;15.70;77.00;;;;;;5074332;28;20176;-77
2023/07/07 02:00:45;;;;;;;4.90;3.83;;;15.70;76.00;;;;;;5074150;28;20215;-77
2023/07/07 02:03:11;;;;;;;4.50;3.87;;;15.60;82.50;;;;;;5074108;28;20169;-78
2023/07/07 02:05:37;;;;;;;4.37;3.83;;;15.50;85.50;;;;;;5073739;28;20247;-77
2023/07/07 02:08:04;;;;;;;6.80;4.30;;;15.50;89.00;;;;;;5073995;28;20260;-77
2023/07/07 02:10:29;;;;;;;4.70;4.20;;;15.40;92.20;;;;;;5055966;28;20270;-77
2023/07/07 02:12:55;;;;;;;4.47;4.07;;;15.40;92.10;;;;;;5074095;28;20253;-78
2023/07/07 02:15:21;;;;;;;6.33;3.83;;;15.40;92.60;;;;;;5056034;28;20193;-77
2023/07/07 02:17:47;;;;;;;7.20;3.90;;;15.30;91.40;;;;;;5074012;28;20160;-77
2023/07/07 02:20:13;;;;;;;7.83;4.27;;;15.30;94.60;;;;;;5073470;28;20214;-77
2023/07/07 02:22:39;;;;;;;8.00;4.83;;;15.30;94.80;;;;;;5073816;28;20259;-77
2023/07/07 02:25:05;;;;;;;6.47;4.00;;;15.30;92.50;;;;;;5073775;28;20251;-77
2023/07/07 02:27:31;;;;;;;5.00;3.83;;;15.30;93.80;;;;;;5073749;28;20239;-77
2023/07/07 02:29:57;;;;;;;4.30;3.90;;;15.20;95.40;;;;;;5073703;28;20199;-76
2023/07/07 02:32:22;;;;;;;6.13;4.07;;;15.20;98.70;;;;;;5073652;28;20196;-77
2023/07/07 02:34:48;;;;;;;4.80;4.03;;;15.20;99.30;;;;;;5073409;28;20643;-76
2023/07/07 02:37:18;;;;;;;4.70;3.90;;;15.20;98.80;;;;;;5055461;28;20176;-75
2023/07/07 02:39:45;;;;;;;5.93;4.03;;;15.20;98.80;;;;;;5073281;28;20204;-76
2023/07/07 02:42:11;;;;;;;4.63;4.10;;;15.20;99.40;;;;;;5073294;28;20230;-78
2023/07/07 02:44:37;;;;;;;4.77;4.00;;;15.10;99.40;;;;;;5073551;28;20169;-76
2023/07/07 02:47:04;;;;;;;4.77;3.63;;;15.10;99.10;;;;;;5073568;28;20222;-76
2023/07/07 02:49:29;;;;;;;5.87;4.00;;;15.10;99.10;;;;;;5073044;28;20184;-76
2023/07/07 02:51:55;;;;;;;6.07;4.13;;;15.10;97.50;;;;;;5073284;28;20180;-77
2023/07/07 02:54:20;;;;;;;5.33;3.63;;;15.00;99.90;;;;;;5073272;28;20640;-77
2023/07/07 02:56:46;;;;;;;4.60;3.60;;;15.10;99.00;;;;;;5073364;28;20173;-77
2023/07/07 02:59:12;;;;;;;5.93;4.40;;;15.00;98.70;;;;;;5055632;28;20179;-77
2023/07/07 03:01:37;;;;;;;9.17;4.80;;;15.00;99.90;;;;;;5073461;28;20178;-78
2023/07/07 03:04:04;;;;;;;8.13;3.60;;;15.00;99.90;;;;;;5072227;28;20215;-78
2023/07/07 03:06:30;;;;;;;6.10;4.10;;;14.90;99.90;;;;;;5073232;28;20176;-77
2023/07/07 03:08:55;;;;;;;9.07;4.13;;;14.90;99.90;;;;;;5073336;28;20172;-78
2023/07/07 03:11:23;;;;;;;7.73;4.13;;;14.90;99.90;;;;;;5055099;28;20230;-77
2023/07/07 03:13:49;;;;;;;9.73;4.30;;;14.90;99.90;;;;;;5055157;28;20594;-78
2023/07/07 03:16:23;;;;;;;4.87;4.00;;;14.90;99.90;;;;;;5072596;28;20708;-77
2023/07/07 03:18:53;;;;;;;7.07;4.20;;;14.90;99.90;;;;;;5072734;28;20178;-78
2023/07/07 03:21:20;;;;;;;7.03;4.23;;;14.90;99.90;;;;;;5054701;28;20216;-77
2023/07/07 03:23:46;;;;;;;4.47;3.90;;;14.90;99.90;;;;;;5073001;28;20531;-78
2023/07/07 03:26:16;;;;;;;5.23;4.20;;;14.90;99.90;;;;;;5055067;28;20179;-78
2023/07/07 03:28:42;;;;;;;4.60;4.20;;;14.80;99.90;;;;;;5073150;28;20204;-78
2023/07/07 03:31:10;;;;;;;9.17;4.50;;;14.80;99.90;;;;;;5072938;28;20241;-77
2023/07/07 03:33:37;;;;;;;7.77;5.13;;;14.80;99.90;;;;;;5072243;28;20176;-78
2023/07/07 03:36:04;;;;;;;5.57;4.50;;;14.80;99.90;;;;;;5072560;28;20216;-77
2023/07/07 03:38:29;;;;;;;6.13;4.27;;;14.80;99.90;;;;;;5038338;28;20224;-77
2023/07/07 03:40:55;;;;;;;6.70;4.20;;;14.80;99.90;;;;;;5072803;28;20215;-77
2023/07/07 03:43:20;;;;;;;5.17;4.33;;;14.80;99.90;;;;;;5072629;28;20575;-77
2023/07/07 03:45:46;;;;;;;10.40;4.57;;;14.90;99.90;;;;;;5072638;28;20200;-76
2023/07/07 03:48:12;;;;;;;5.87;5.13;;;14.90;99.90;;;;;;5072383;28;20172;-78
2023/07/07 03:50:38;;;;;;;9.50;4.50;;;14.90;99.90;;;;;;5072528;28;20570;-77
2023/07/07 03:53:03;;;;;;;6.27;4.17;;;14.90;99.90;;;;;;5072572;28;20161;-77
2023/07/07 03:55:29;;;;;;;6.70;4.17;;;15.00;99.90;;;;;;5072499;28;20176;-76
2023/07/07 03:57:55;;;;;;;8.37;4.20;;;15.30;99.90;;;;;;5071821;28;20201;-77
2023/07/07 04:00:21;;;;;;;5.50;4.23;;;15.60;96.40;;;;;;5072760;28;20262;-78
2023/07/07 04:02:47;;;;;;;12.80;5.23;;;16.10;82.50;;;;;;5072392;28;20165;-77
2023/07/07 04:05:13;;;;;;;9.90;4.73;;;16.50;66.00;;;;;;5054288;28;20527;-77
2023/07/07 04:07:38;;;;;;;7.40;4.20;;;16.90;50.00;;;;;;5072583;28;20168;-76
2023/07/07 04:10:04;;;;;;;35.60;6.67;;;17.40;24.30;;;;;;5072078;28;20208;-77
2023/07/07 04:12:31;;;;;;;8.80;4.13;;;17.90;15.40;;;;;;5072572;28;20176;-77
2023/07/07 04:14:58;;;;;;;9.63;4.50;;;18.30;1.00;;;;;;5072784;28;20175;-78
2023/07/07 04:17:24;;;;;;;8.45;4.38;;;18.70;1.00;;;;;;5057352;28;20172;-77
2023/07/07 04:19:50;;;;;;;7.97;4.13;;;19.20;1.00;;;;;;5076191;28;20273;-77
2023/07/07 04:22:15;;;;;;;9.25;4.20;;;19.70;1.00;;;;;;5075762;28;20667;-78
2023/07/07 04:24:41;;;;;;;8.80;3.88;;;20.10;1.00;;;;;;5075136;28;20175;-78
2023/07/07 04:27:06;;;;;;;7.35;4.20;;;20.60;1.00;;;;;;5075459;28;20176;-78
2023/07/07 04:29:32;;;;;;;10.63;4.35;;;21.30;1.00;;;;;;5075643;28;20165;-77
2023/07/07 04:31:59;;;;;;;9.70;4.32;;;21.20;1.00;;;;;;5074886;28;20580;-77
2023/07/07 04:34:26;;;;;;;8.07;4.10;;;21.50;1.00;;;;;;5075613;28;20165;-78
2023/07/07 04:36:52;;;;;;;8.55;4.20;;;21.70;1.00;;;;;;5057758;28;20582;-77
2023/07/07 04:39:17;;;;;;;13.45;4.90;;;22.00;1.00;;;;;;5075322;28;20219;-77
2023/07/07 04:41:43;;;;;;;5.80;4.13;;;22.60;1.00;;;;;;5075332;28;20200;-77
2023/07/07 04:44:09;;;;;;;10.00;4.03;;;23.40;99.90;;;;;;5075459;28;20620;-76
2023/07/07 04:46:36;;;;;;;8.05;4.40;;;24.20;99.90;;;;;;5056488;28;20593;-76
2023/07/07 04:49:06;;;;;;;12.98;4.75;;;24.30;99.90;;;;;;5075286;28;20570;-77
2023/07/07 04:51:37;;;;;;;6.00;3.45;;;24.70;1.00;;;;;;5074785;28;20180;-76
2023/07/07 04:54:03;;;;;;;11.82;4.47;;;25.10;99.90;;;;;;5074986;28;20275;-77
2023/07/07 04:56:29;;;;;;;4.80;3.47;;;26.20;99.90;;;;;;5075290;28;20165;-77
2023/07/07 04:58:56;;;;;;;4.40;2.55;;;25.80;99.90;;;;;;5075078;28;20581;-77
2023/07/07 05:01:26;;;;;;;3.05;2.75;;;25.80;1.00;;;;;;5074665;28;20208;-78
2023/07/07 05:03:57;;;;;;;5.15;3.15;;;25.70;1.00;;;;;;5074963;28;20176;-77
2023/07/07 05:06:24;;;;;;;5.75;2.95;;;25.50;99.90;;;;;;5074880;28;20164;-76
2023/07/07 05:08:51;;;;;;;7.97;3.25;;;25.80;1.00;;;;;;5074448;28;20165;-77
2023/07/07 05:11:20;;;;;;;4.60;2.70;;;26.10;99.90;;;;;;5074481;28;20533;-76
2023/07/07 05:13:48;;;;;;;5.53;2.50;;;26.10;99.90;;;;;;5074420;28;20248;-76
2023/07/07 05:16:16;;;;;;;3.50;2.58;;;26.20;99.90;;;;;;5074373;28;20184;-76
2023/07/07 05:18:42;;;;;;;2.85;2.55;;;26.40;99.90;;;;;;5074274;28;20172;-77
2023/07/07 05:21:09;;;;;;;2.83;2.33;;;26.80;1.00;;;;;;5074564;28;20208;-76
2023/07/07 05:23:35;;;;;;;2.85;2.33;;;26.70;1.00;;;;;;5074217;28;20672;-76
2023/07/07 05:26:01;;;;;;;2.50;2.30;;;26.50;1.00;;;;;;5073873;28;20184;-75
2023/07/07 05:28:27;;;;;;;2.65;2.38;;;26.90;1.00;;;;;;5073593;28;20165;-75
2023/07/07 05:30:53;;;;;;;2.35;2.15;;;26.70;1.00;;;;;;5074304;28;20269;-76
2023/07/07 05:33:20;;;;;;;2.33;2.17;;;26.60;1.00;;;;;;5073779;28;20248;-75
2023/07/07 05:35:51;;;;;;;2.30;2.10;;;26.20;1.00;;;;;;5074120;28;20203;-74
2023/07/07 05:38:18;;;;;;;2.20;2.10;;;26.70;1.00;;;;;;5052285;28;20220;-76
2023/07/07 05:40:45;;;;;;;5.22;2.78;;;26.60;1.00;;;;;;5053462;28;20209;-74
2023/07/07 05:43:15;;;;;;;3.08;2.78;;;26.80;1.00;;;;;;5053663;28;20170;-75
2023/07/07 05:45:41;;;;;;;2.30;2.13;;;27.20;1.00;;;;;;5054133;28;20177;-75
2023/07/07 05:48:08;;;;;;;3.20;2.90;;;27.40;1.00;;;;;;5053918;28;20244;-75
2023/07/07 05:50:34;;;;;;;3.92;2.65;;;28.40;1.00;;;;;;5052729;28;20180;-75
2023/07/07 05:53:01;;;;;;;4.80;3.40;;;29.00;99.90;;;;;;5053444;28;20212;-74
2023/07/07 05:55:32;;;;;;;3.15;2.95;;;29.50;99.90;;;;;;5053590;28;20585;-75
2023/07/07 05:57:59;;;;;;;4.07;2.97;;;29.80;99.90;;;;;;5053226;28;20532;-75
2023/07/07 06:00:27;;;;;;;3.40;2.83;;;30.40;99.90;;;;;;5053420;28;20233;-76
2023/07/07 06:02:56;;;;;;;2.92;2.72;;;30.80;99.90;;;;;;5052251;28;20204;-76
2023/07/07 06:05:22;;;;;;;3.80;2.70;;;30.20;99.90;;;;;;5051670;28;20506;-76
2023/07/07 06:07:50;;;;;;;3.53;2.20;;;30.60;99.90;;;;;;5053202;28;20546;-75
2023/07/07 06:10:16;;;;;;;2.60;2.40;;;30.30;99.90;;;;;;5053156;28;20196;-76
2023/07/07 06:12:42;;;;;;;2.55;2.33;;;30.20;99.90;;;;;;5052707;28;20169;-76
2023/07/07 06:15:08;;;;;;;2.10;1.88;;;30.50;99.90;;;;;;5053401;28;20247;-76
2023/07/07 06:17:34;;;;;;;3.53;2.47;;;30.50;99.90;;;;;;5053048;28;20259;-76
2023/07/07 06:20:00;;;;;;;4.75;2.47;;;30.20;99.90;;;;;;5052529;28;20197;-76
2023/07/07 06:22:26;;;;;;;3.83;2.00;;;29.50;99.90;;;;;;5052673;28;20166;-76
2023/07/07 06:24:52;;;;;;;6.00;2.47;;;29.80;99.90;;;;;;5053587;28;20177;-75
2023/07/07 06:27:18;;;;;;;3.45;2.53;;;29.60;99.90;;;;;;5051300;28;20477;-76
2023/07/07 06:29:44;;;;;;;2.70;2.50;;;30.20;99.90;;;;;;5052592;28;20593;-77
2023/07/07 06:32:10;;;;;;;2.90;2.42;;;30.50;99.90;;;;;;5051315;28;20268;-76
2023/07/07 06:34:36;;;;;;;4.30;2.30;;;30.00;99.90;;;;;;5052895;28;20179;-77
2023/07/07 06:37:01;;;;;;;3.33;2.20;;;29.90;99.90;;;;;;5052200;28;20662;-77
2023/07/07 06:39:28;;;;;;;5.28;2.50;;;30.70;99.90;;;;;;5070559;28;20255;-78
2023/07/07 06:41:55;;;;;;;2.92;2.25;;;30.80;99.90;;;;;;5072854;28;20173;-77
2023/07/07 06:44:20;;;;;;;4.28;2.38;;;31.10;99.90;;;;;;5072580;28;20244;-79
2023/07/07 06:46:46;;;;;;;3.60;2.40;;;31.00;99.90;;;;;;5072613;28;20264;-78
2023/07/07 06:49:12;;;;;;;5.07;2.60;;;31.80;99.90;;;;;;5072742;28;20168;-77
2023/07/07 06:51:37;;;;;;;3.33;2.53;;;32.50;99.90;;;;;;5072720;28;20175;-77
2023/07/07 06:54:03;;;;;;;5.68;2.35;;;32.80;99.90;;;;;;5072620;28;20204;-77
2023/07/07 06:56:29;;;;;;;4.47;2.80;;;33.50;99.90;;;;;;5072308;28;20674;-78
2023/07/07 06:58:54;;;;;;;6.10;2.55;;;33.20;99.90;;;;;;5072599;28;20173;-79
2023/07/07 07:01:20;;;;;;;2.58;2.08;;;33.70;99.90;;;;;;5072262;28;20608;-79
2023/07/07 07:03:46;;;;;;;2.78;2.38;;;33.40;92.10;;;;;;5072649;28;20168;-81
2023/07/07 07:06:12;;;;;;;2.92;2.25;;;33.30;85.30;;;;;;5072633;28;20208;-80
2023/07/07 07:08:38;;;;;;;3.22;2.45;;;32.50;78.70;;;;;;5072945;28;20168;-77
2023/07/07 07:11:05;;;;;;;3.10;2.35;;;32.30;78.30;;;;;;5072204;28;20605;-79
2023/07/07 07:13:31;;;;;;;2.38;2.20;;;32.40;79.40;;;;;;5072486;28;20172;-78
2023/07/07 07:15:57;;;;;;;2.28;2.15;;;32.90;83.70;;;;;;5072564;28;20268;-78
2023/07/07 07:18:23;;;;;;;4.30;2.67;;;33.50;78.10;;;;;;5072636;28;20167;-79
2023/07/07 07:20:49;;;;;;;4.63;2.50;;;33.80;67.80;;;;;;5072165;28;20215;-78
2023/07/07 07:23:15;;;;;;;3.05;2.15;;;32.80;89.10;;;;;;5072208;28;20165;-78
2023/07/07 07:25:43;;;;;;;3.17;2.13;;;32.40;68.10;;;;;;5072139;28;20214;-78
2023/07/07 07:28:09;;;;;;;3.85;2.50;;;32.00;76.10;;;;;;5071999;28;20164;-78
2023/07/07 07:30:35;;;;;;;2.45;2.13;;;33.00;87.20;;;;;;5072463;28;20628;-80
2023/07/07 07:33:03;;;;;;;4.18;2.72;;;33.20;79.60;;;;;;5072062;28;20179;-79
2023/07/07 07:35:29;;;;;;;2.45;2.03;;;33.20;82.30;;;;;;5072361;28;20204;-79
2023/07/07 07:37:54;;;;;;;1.85;1.75;;;33.20;66.70;;;;;;5072417;28;20569;-78
2023/07/07 07:40:23;;;;;;;3.20;2.28;;;32.60;58.00;;;;;;5072241;28;20208;-78
2023/07/07 07:42:49;;;;;;;2.20;2.00;;;32.40;57.10;;;;;;5072162;28;20172;-78
2023/07/07 07:45:18;;;;;;;3.53;2.28;;;32.90;59.00;;;;;;5072345;28;20169;-79
2023/07/07 07:47:44;;;;;;;3.35;2.45;;;33.10;56.60;;;;;;5071992;28;20169;-80
2023/07/07 07:50:10;;;;;;;3.08;2.35;;;33.50;53.30;;;;;;5056548;28;20672;-78
2023/07/07 07:52:35;;;;;;;4.53;2.13;;;34.00;51.30;;;;;;5076109;28;20696;-79
2023/07/07 07:55:01;;;;;;;2.63;2.40;;;35.00;49.70;;;;;;5057461;28;20187;-79
2023/07/07 07:57:27;;;;;;;1.98;1.88;;;35.20;43.10;;;;;;5075787;28;20168;-80
2023/07/07 07:59:53;;;;;;;2.60;2.40;;;35.20;33.90;;;;;;5057764;28;20211;-78
2023/07/07 08:02:18;;;;;;;2.33;2.13;;;33.80;27.20;;;;;;5075742;28;20179;-78
2023/07/07 08:04:44;;;;;;;2.83;2.20;;;33.70;28.20;;;;;;5075481;28;20169;-80
2023/07/07 08:07:09;;;;;;;5.28;2.42;;;34.30;27.60;;;;;;5075542;28;20168;-79
2023/07/07 08:09:35;;;;;;;2.50;2.30;;;34.00;26.10;;;;;;5075517;28;20208;-80
2023/07/07 08:12:03;;;;;;;3.22;2.35;;;33.50;26.70;;;;;;5075464;28;20168;-81
2023/07/07 08:14:31;;;;;;;2.40;2.30;;;33.80;29.10;;;;;;5075481;28;20173;-81
2023/07/07 08:16:59;;;;;;;3.42;2.50;;;34.30;30.60;;;;;;5075842;28;20185;-81
2023/07/07 08:19:25;;;;;;;2.60;2.40;;;34.80;32.50;;;;;;5075640;28;20164;-80
2023/07/07 08:21:50;;;;;;;2.85;2.60;;;35.20;25.40;;;;;;5057225;28;20184;-79
2023/07/07 08:24:16;;;;;;;3.95;2.53;;;34.70;24.90;;;;;;5075060;28;20225;-80
2023/07/07 08:26:43;;;;;;;2.92;2.40;;;34.60;24.00;;;;;;5077871;28;20168;-81
2023/07/07 08:29:09;;;;;;;3.25;2.53;;;34.40;27.10;;;;;;5076214;28;20188;-81
2023/07/07 08:31:35;;;;;;;2.67;2.17;;;34.10;29.30;;;;;;5075578;28;20163;-80
2023/07/07 08:34:02;;;;;;;3.05;2.17;;;34.20;30.30;;;;;;5075533;28;20251;-79
2023/07/07 08:36:28;;;;;;;3.08;2.47;;;34.20;36.80;;;;;;5075729;28;20168;-80
2023/07/07 08:38:55;;;;;;;2.95;2.40;;;34.30;37.50;;;;;;5074880;28;20224;-78
2023/07/07 08:41:21;;;;;;;5.03;2.60;;;33.10;40.00;;;;;;5074749;28;20231;-80
2023/07/07 08:43:47;;;;;;;2.70;2.20;;;33.40;50.30;;;;;;5075317;28;20593;-80
2023/07/07 08:46:39;;;;;;;2.63;2.22;;;33.40;55.30;;;;;;5075213;28;20192;-79
2023/07/07 08:49:20;;;;;;;4.75;2.60;;;32.70;59.30;;;;;;5075421;28;20670;-81
2023/07/07 08:52:01;;;;;;;5.68;2.80;;;33.30;83.60;;;;;;5074566;28;20180;-80
2023/07/07 08:54:48;;;;;;;6.75;3.10;;;33.50;85.70;;;;;;5075128;28;20318;-80
2023/07/07 08:57:15;;;;;;;4.53;2.88;;;34.00;90.00;;;;;;5074964;28;20184;-80
2023/07/07 09:00:02;;;;;;;2.90;2.50;;;33.70;81.50;;;;;;5074785;28;20198;-81
2023/07/07 09:02:33;;;;;;;2.50;2.30;;;34.00;76.40;;;;;;5074318;28;20165;-81
2023/07/07 09:05:20;;;;;;;2.97;2.63;;;34.30;71.40;;;;;;5074661;28;20251;-81
2023/07/07 09:07:54;;;;;;;5.85;2.70;;;34.20;66.00;;;;;;5074564;28;20520;-81
2023/07/07 09:10:52;;;;;;;2.90;2.63;;;35.00;60.00;;;;;;5074651;28;20247;-82
2023/07/07 09:13:28;;;;;;;4.15;2.65;;;34.40;51.80;;;;;;5074716;28;20214;-80
2023/07/07 09:16:24;;;;;;;3.28;2.40;;;34.50;49.60;;;;;;5074322;28;20188;-79
2023/07/07 09:18:56;;;;;;;3.45;2.53;;;32.40;51.30;;;;;;5074267;28;20168;-82
2023/07/07 09:21:35;;;;;;;2.42;2.28;;;33.00;72.10;;;;;;5074073;28;20259;-80
2023/07/07 09:24:10;;;;;;;2.50;2.30;;;33.40;70.00;;;;;;5074358;28;20523;-81
2023/07/07 09:26:37;;;;;;;2.72;2.53;;;32.70;62.70;;;;;;5074374;28;20263;-79
2023/07/07 09:29:19;;;;;;;3.55;2.30;;;32.90;67.80;;;;;;5074465;28;20681;-81
2023/07/07 09:31:45;;;;;;;3.35;2.50;;;34.30;74.50;;;;;;5074637;28;20179;-80
2023/07/07 09:34:13;;;;;;;2.70;2.47;;;32.00;51.60;;;;;;5073877;28;20620;-79
2023/07/07 09:36:52;;;;;;;3.70;2.53;;;31.70;71.00;;;;;;5074204;28;20188;-81
2023/07/07 09:39:26;;;;;;;4.22;2.80;;;31.90;91.40;;;;;;5074143;28;20227;-81
2023/07/07 09:42:04;;;;;;;2.50;2.15;;;32.40;92.40;;;;;;5074039;28;20219;-81
2023/07/07 09:44:35;;;;;;;2.80;2.60;;;31.80;87.20;;;;;;5073995;28;20157;-81
2023/07/07 09:47:28;;;;;;;2.80;2.60;;;30.70;99.90;;;;;;5073479;28;20243;-82
2023/07/07 09:50:00;;;;;;;2.45;2.33;;;31.60;99.90;;;;;;5073607;28;20184;-81
2023/07/07 09:52:58;;;;;;;2.63;2.42;;;31.90;99.90;;;;;;5073810;28;20263;-81
2023/07/07 09:55:28;;;;;;;2.80;2.58;;;32.30;98.70;;;;;;4992457;28;20188;-82
2023/07/07 09:58:10;;;;;;;2.75;2.53;;;32.70;87.50;;;;;;4992587;28;20174;-81
2023/07/07 10:00:38;;;;;;;3.90;2.60;;;33.00;81.10;;;;;;4976831;28;20222;-80
2023/07/07 10:03:34;;;;;;;2.53;2.33;;;33.10;67.00;;;;;;4991711;28;20182;-82
2023/07/07 10:06:02;;;;;;;2.75;2.53;;;33.60;58.10;;;;;;4991293;28;20238;-81
2023/07/07 10:08:28;;;;;;;2.65;2.45;;;33.70;50.90;;;;;;4992028;28;20214;-80
2023/07/07 10:11:17;;;;;;;4.25;2.70;;;33.40;41.20;;;;;;4991664;28;20253;-81
2023/07/07 10:13:42;;;;;;;2.85;2.60;;;33.70;39.90;;;;;;4991773;28;20279;-81
2023/07/07 10:16:28;;;;;;;2.80;2.40;;;32.90;33.00;;;;;;4991651;28;20666;-80
2023/07/07 10:18:56;;;;;;;2.50;2.30;;;32.50;35.70;;;;;;4991815;28;20204;-81
2023/07/07 10:21:22;;;;;;;3.00;2.80;;;31.40;37.80;;;;;;4992105;28;20819;-81
2023/07/07 10:23:47;;;;;;;2.90;2.67;;;31.70;52.30;;;;;;4992033;28;20207;-81
2023/07/07 10:26:13;;;;;;;2.75;2.55;;;32.00;60.30;;;;;;4991517;28;20187;-82
2023/07/07 10:28:38;;;;;;;2.88;2.67;;;32.20;60.50;;;;;;4992214;28;20254;-82
2023/07/07 10:31:05;;;;;;;4.03;2.72;;;32.50;57.00;;;;;;5009076;28;20264;-82
2023/07/07 10:33:30;;;;;;;2.70;2.50;;;32.50;58.20;;;;;;5073450;28;20200;-81
2023/07/07 10:35:56;;;;;;;2.70;2.50;;;32.40;55.70;;;;;;5073963;28;20631;-81
2023/07/07 10:38:23;;;;;;;3.25;2.90;;;32.00;51.00;;;;;;5073875;28;20224;-80
2023/07/07 10:40:51;;;;;;;2.90;2.70;;;31.90;58.40;;;;;;5073067;28;20220;-82
2023/07/07 10:43:18;;;;;;;5.10;3.60;;;32.40;62.00;;;;;;5073183;28;20725;-80
2023/07/07 10:45:45;;;;;;;2.97;2.60;;;32.10;64.60;;;;;;5073388;28;20582;-80
2023/07/07 10:48:12;;;;;;;3.65;2.58;;;31.50;67.10;;;;;;5054658;28;20200;-80
2023/07/07 10:51:04;;;;;;;4.57;2.60;;;31.60;69.90;;;;;;5054987;28;20207;-81
2023/07/07 10:53:52;;;;;;;2.83;2.63;;;31.30;74.10;;;;;;5072622;28;20195;-79
2023/07/07 10:56:37;;;;;;;3.10;2.90;;;30.60;83.10;;;;;;5072968;28;20168;-80
2023/07/07 10:59:21;;;;;;;6.75;3.33;;;30.40;84.90;;;;;;5072921;28;20235;-79
2023/07/07 11:02:09;;;;;;;3.28;3.00;;;30.30;93.90;;;;;;5072323;28;20691;-79
2023/07/07 11:04:55;;;;;;;3.35;3.08;;;30.60;99.90;;;;;;5072241;28;20624;-81
2023/07/07 11:07:33;;;;;;;4.93;3.58;;;31.50;99.90;;;;;;5073050;28;20260;-80
2023/07/07 11:10:32;;;;;;;3.28;2.75;;;31.00;94.90;;;;;;5072551;28;20168;-82
2023/07/07 11:13:22;;;;;;;4.85;2.70;;;31.20;96.70;;;;;;5072307;28;20164;-81
2023/07/07 11:15:57;;;;;;;2.90;2.55;;;30.60;96.00;;;;;;5072355;28;20192;-81
2023/07/07 11:18:47;;;;;;;3.92;2.90;;;30.30;97.90;;;;;;5072127;28;20628;-80
2023/07/07 11:21:41;;;;;;;5.00;2.97;;;30.10;99.90;;;;;;5072378;28;20200;-79
2023/07/07 11:24:06;;;;;;;4.25;2.78;;;30.50;99.90;;;;;;5073641;28;20251;-79
2023/07/07 11:26:56;;;;;;;3.08;2.88;;;30.30;99.90;;;;;;5076432;28;20255;-79
2023/07/07 11:29:42;;;;;;;3.17;2.88;;;29.80;99.90;;;;;;5075867;28;20171;-79
2023/07/07 11:32:25;;;;;;;3.22;2.80;;;29.80;99.90;;;;;;5076073;28;20175;-80
2023/07/07 11:35:03;;;;;;;3.33;3.03;;;29.80;99.90;;;;;;5076838;28;20168;-79
2023/07/07 11:37:41;;;;;;;3.97;2.92;;;29.90;99.90;;;;;;5076561;28;20630;-81
2023/07/07 11:40:13;;;;;;;3.75;3.20;;;30.10;99.90;;;;;;5075704;28;20208;-81
2023/07/07 11:42:53;;;;;;;4.00;3.50;;;30.10;99.90;;;;;;5075970;28;20168;-81
2023/07/07 11:45:56;;;;;;;3.95;3.53;;;29.90;99.90;;;;;;5076194;28;20661;-80
2023/07/07 11:48:28;;;;;;;3.15;2.95;;;30.00;99.90;;;;;;5076655;28;20180;-81
2023/07/07 11:51:26;;;;;;;3.92;3.03;;;30.60;99.90;;;;;;5075940;28;20165;-81
2023/07/07 11:54:04;;;;;;;4.20;3.50;;;30.50;99.90;;;;;;5004347;28;20279;-81
2023/07/07 11:57:02;;;;;;;3.70;2.78;;;29.90;99.90;;;;;;5076304;28;20169;-81
2023/07/07 11:59:54;;;;;;;4.65;4.25;;;29.80;99.90;;;;;;5075945;28;20203;-80
2023/07/07 12:02:28;;;;;;;4.43;3.33;;;29.60;99.90;;;;;;5075421;28;20251;-79
2023/07/07 12:04:56;;;;;;;5.10;3.65;;;29.70;99.90;;;;;;5057505;28;20606;-80
2023/07/07 12:07:40;;;;;;;3.20;2.90;;;30.00;99.90;;;;;;5076286;28;20179;-80
2023/07/07 12:10:20;;;;;;;3.30;3.00;;;30.00;99.90;;;;;;5076873;28;20724;-80
2023/07/07 12:12:53;;;;;;;3.38;3.13;;;29.90;99.90;;;;;;5075498;28;20234;-80
2023/07/07 12:15:32;;;;;;;3.50;3.20;;;29.60;99.90;;;;;;5075504;28;20192;-80
2023/07/07 12:18:16;;;;;;;4.15;3.75;;;29.70;99.90;;;;;;5075467;28;20168;-77
2023/07/07 12:21:16;;;;;;;7.40;4.22;;;29.90;99.90;;;;;;5075549;28;20285;-79
2023/07/07 12:24:15;;;;;;;4.45;3.13;;;29.60;99.90;;;;;;5075568;28;20176;-80
2023/07/07 12:26:54;;;;;;;3.70;3.40;;;29.70;99.90;;;;;;5075394;28;20636;-80
2023/07/07 12:29:20;;;;;;;3.80;3.28;;;29.80;99.90;;;;;;5074622;28;20164;-80
2023/07/07 12:31:47;;;;;;;4.90;3.45;;;29.50;99.90;;;;;;5075084;28;20172;-78
2023/07/07 12:34:36;;;;;;;3.95;3.30;;;29.40;99.90;;;;;;5075389;28;20177;-79
2023/07/07 12:37:05;;;;;;;3.65;3.35;;;29.40;99.90;;;;;;5074016;28;20169;-80
2023/07/07 12:39:30;;;;;;;4.35;3.45;;;29.50;99.90;;;;;;5074822;28;20228;-80
2023/07/07 12:41:56;;;;;;;3.45;3.17;;;29.70;99.90;;;;;;5075120;28;20181;-79
2023/07/07 12:44:21;;;;;;;3.70;3.40;;;30.00;99.90;;;;;;5074900;28;20176;-78
2023/07/07 12:46:47;;;;;;;5.22;3.13;;;30.30;99.90;;;;;;5075283;28;20168;-78
2023/07/07 12:49:22;;;;;;;3.92;3.60;;;30.40;99.90;;;;;;5074718;28;20206;-78
2023/07/07 12:51:55;;;;;;;3.85;3.53;;;30.40;99.90;;;;;;5075090;28;20178;-79
2023/07/07 12:54:33;;;;;;;4.43;3.75;;;30.10;99.90;;;;;;5056542;28;20177;-79
2023/07/07 12:57:18;;;;;;;7.20;3.80;;;30.10;99.90;;;;;;5074478;28;20199;-78
2023/07/07 12:59:45;;;;;;;4.00;3.60;;;30.30;99.90;;;;;;5074364;28;20177;-78
2023/07/07 13:02:24;;;;;;;6.35;3.70;;;30.40;99.90;;;;;;5074602;28;20221;-79
2023/07/07 13:05:18;;;;;;;6.88;3.53;;;29.60;99.90;;;;;;5074808;28;20173;-79